Ana Sayfa
METAR-TAF:

METAR-TAF

Havaalanları :

Cebelitarık Havalimanı

Cebelitarık, Cebelitarık

Enlem: 36-09N, Boylam: 005-21W, yükseklik: 5 m

Güncel hava durumu gözlemi

Rapor saat 05:50 UTC de 1 saat ve 5 dakika önce yapıldı.
Rüzgar doğudan 15 kt
Sıcaklık 14°C
Nem 77%
Basınç 1021 hPa
Görüş mesafesi 10 km veya daha fazla
1300 ft yükseklikte az bulutlu
3500 ft yükseklikte parçalı bulutlu

METAR: LXGB 200550Z 10015KT 9999 FEW013 SCT035 14/10 Q1021

Saat: 07:55 (06:55 UTC)

Tahmin

Rapor saat 05:10 UTC de 1 saat ve 45 dakika önce yapıldı.
Ayın 20'si saat 06 UTC'den ayın 20'si saat 15 UTC'ye kadar geçerli Tahmin
Rüzgar doğudan 13 kt
Görüş mesafesi 10 km veya daha fazla
1800 ft yükseklikte az bulutlu
3000 ft yükseklikte parçalı bulutlu
Geçici
ayın 20'si saat 06 UTC'den ayın 20'si saat 15 UTC'ye kadar
Rüzgar doğudan 15 kt ve 25 kt'a kadar ani rüzgarlar
1800 ft yükseklikte parçalı bulutlu

TAF: LXGB 200510Z 2006/2015 09013KT 9999 FEW018 SCT030 TEMPO 2006/2015 10015G25KT SCT018

4.000'den fazla havaalanı için hava durumu gözlemleri ve tahminleri (METAR ve TAF raporları).

Kullanılabilir istasyonlar harita üzerinde sarı ve kırmızı noktalarla gösterilir.

İstasyonun adını görmek için fareyi noktanın üzerinde gezdirin.

Sonrasında hava gözlem ve tahminlerini görmek için tıklayın.

Haritayı değiştirmek için: yaklaştırmak için siyah artı işaretli yeşil düğmeye ve uzaklaştırmak için de eksi işaretli düğmeye hızla tıklayın; bitişik haritalar için yeşil okları kullanın.


METAR-TAF: